Colorado Springs, CO (80921)

11:37 PM MDT on September 22, 2014 (GMT -0600)
Gleneagle | Change Station
CLOSE
Current Station
Personal Weather Station
Location: Colorado Springs, CO
Elevation: 6811 ft
Nearby Weather Stations

Elev 6811 ft 39.03 °N, 104.83 °W | Updated 11 minutes ago

Clear
Clear
52.2 °F
Feels Like 52.2 °F
N
0.0
Wind Variable Wind from NNE

Today
High -- | Low -- °F
--% Chance of Precip.
Yesterday
High -- | Low -- °F
Precip. -- in
6:47 AM 6:56 PM
Waning Crescent, 1% visible
Pressure 30.05 in
Visibility 10.0 miles
Clouds Clear
Dew Point 48 °F
Humidity 87%
Rainfall 0.00 in
Snow Depth 0 in , 86 in , 1 in
UV 0 out of 12
Pollen 4.60 out of 12
Ozone Good
PM2.5 Good
Flu Activity Not available.
METAR KAFF 230458Z AUTO 35009KT 10SM CLR 12/09 A3022 RMK AO2 SLP174 T01200088

More Conditions Fewer Conditions

Pressure 30.05 in
Visibility 10.0 miles
Clouds Clear
Dew Point 48 °F
Humidity 87%
Rainfall 0.00 in
Snow Depth 0 in , 86 in , 1 in
UV 0 out of 12
Pollen 4.60 out of 12
Ozone Good
PM2.5 Good
Flu Activity Not available.
METAR KAFF 230458Z AUTO 35009KT 10SM CLR 12/09 A3022 RMK AO2 SLP174 T01200088

More Conditions Fewer Conditions

10-Day Weather Forecast

Almanac

Astronomy

Sep. 22, 2014 Rise Set
Actual Time 6:47 AM MDT 6:56 PM MDT
Civil Twilight 6:20 AM MDT 7:22 PM MDT
Nautical Twilight 5:49 AM MDT 7:53 PM MDT
Astronomical Twilight 5:17 AM MDT 8:25 PM MDT
Moon 5:18 AM MDT (9/22) 6:04 PM MDT (9/22)
Length of Visible Light 13h 02m
Length of Day
12h 09m
Tomorrow will be 2m 32s shorter.
Waning Crescent, 1% of the Moon is Illuminated
Sep 23
Waning Crescent
Sep 24
New
Oct 1
First Quarter
Oct 8
Full
Oct 15
Last Quarter

Yesterday's Extremes

State Highs State Lows

Community

WunderPhotos

Upload Photos

1,755,606 photos uploaded!

Nearby

Air Quality

  Air Quality AQ Index Pollutant
Yesterday Good
OZONE
Yesterday Good
PM2.5
Current Good
PM2.5
Current Good
OZONE
Monday Good
PM2.5
Monday Good
OZONE
Tuesday Good
PM2.5
Tuesday Good
OZONE

Snow Depth

Station Depth Elevation
Beartown 0 in 11600 ft
Vail Mountain 86 in 10300 ft
Rough And Tumble 1 in 10360 ft
Elk River 0 in 8700 ft
Brumley 0 in 10600 ft

Earthquake Activity

City Distance Mag. Time & Date
No recent earthquake activity has been reported nearby.
Minimum magnitude displayed is 2.5.

Coastal Water Temperatures

Place Temperature
No Stations Reporting

Nearby Weather Stations